sensor_id;sensor_type;location;lat;lon;timestamp;P1;durP1;ratioP1;P2;durP2;ratioP2
11010;SDS011;5558;42.702;23.178;2022-10-03T00:04:26;2.90;;;2.50;;
11010;SDS011;5558;42.702;23.178;2022-10-03T00:07:05;2.53;;;2.20;;
11010;SDS011;5558;42.702;23.178;2022-10-03T00:09:47;3.03;;;2.30;;
11010;SDS011;5558;42.702;23.178;2022-10-03T00:12:34;2.57;;;2.30;;
11010;SDS011;5558;42.702;23.178;2022-10-03T00:15:12;2.60;;;2.40;;
11010;SDS011;5558;42.702;23.178;2022-10-03T00:17:49;3.67;;;2.70;;
11010;SDS011;5558;42.702;23.178;2022-10-03T00:20:32;2.53;;;2.33;;
11010;SDS011;5558;42.702;23.178;2022-10-03T00:23:10;2.43;;;2.23;;
11010;SDS011;5558;42.702;23.178;2022-10-03T00:25:44;2.90;;;2.70;;
11010;SDS011;5558;42.702;23.178;2022-10-03T00:28:23;3.20;;;2.23;;
11010;SDS011;5558;42.702;23.178;2022-10-03T00:31:08;2.50;;;2.30;;
11010;SDS011;5558;42.702;23.178;2022-10-03T00:33:44;3.13;;;2.83;;
11010;SDS011;5558;42.702;23.178;2022-10-03T00:36:25;3.50;;;3.07;;
11010;SDS011;5558;42.702;23.178;2022-10-03T00:42:02;3.40;;;3.10;;
11010;SDS011;5558;42.702;23.178;2022-10-03T00:51:19;3.00;;;2.70;;
11010;SDS011;5558;42.702;23.178;2022-10-03T00:53:57;2.87;;;2.60;;
11010;SDS011;5558;42.702;23.178;2022-10-03T00:59:38;3.10;;;2.80;;
11010;SDS011;5558;42.702;23.178;2022-10-03T01:02:26;2.50;;;2.30;;
11010;SDS011;5558;42.702;23.178;2022-10-03T01:05:03;2.60;;;2.40;;
11010;SDS011;5558;42.702;23.178;2022-10-03T01:07:49;2.60;;;2.40;;
11010;SDS011;5558;42.702;23.178;2022-10-03T01:10:30;2.30;;;2.10;;
11010;SDS011;5558;42.702;23.178;2022-10-03T01:13:12;2.40;;;2.20;;
11010;SDS011;5558;42.702;23.178;2022-10-03T01:15:51;2.33;;;2.00;;
11010;SDS011;5558;42.702;23.178;2022-10-03T01:18:28;2.20;;;2.00;;
11010;SDS011;5558;42.702;23.178;2022-10-03T01:21:06;2.50;;;2.30;;
11010;SDS011;5558;42.702;23.178;2022-10-03T01:26:57;2.47;;;2.27;;
11010;SDS011;5558;42.702;23.178;2022-10-03T01:29:35;2.43;;;2.23;;
11010;SDS011;5558;42.702;23.178;2022-10-03T01:32:27;2.30;;;2.10;;
11010;SDS011;5558;42.702;23.178;2022-10-03T01:35:05;2.63;;;2.43;;
11010;SDS011;5558;42.702;23.178;2022-10-03T01:37:42;2.10;;;1.90;;
11010;SDS011;5558;42.702;23.178;2022-10-03T01:40:18;2.90;;;2.30;;
11010;SDS011;5558;42.702;23.178;2022-10-03T01:42:54;2.30;;;2.10;;
11010;SDS011;5558;42.702;23.178;2022-10-03T01:45:34;2.13;;;1.97;;
11010;SDS011;5558;42.702;23.178;2022-10-03T01:48:11;3.07;;;2.33;;
11010;SDS011;5558;42.702;23.178;2022-10-03T01:50:47;3.70;;;2.33;;
11010;SDS011;5558;42.702;23.178;2022-10-03T01:53:23;2.37;;;2.07;;
11010;SDS011;5558;42.702;23.178;2022-10-03T01:55:55;2.63;;;2.43;;
11010;SDS011;5558;42.702;23.178;2022-10-03T01:58:34;2.43;;;2.03;;
11010;SDS011;5558;42.702;23.178;2022-10-03T02:01:11;2.30;;;2.10;;
11010;SDS011;5558;42.702;23.178;2022-10-03T02:03:45;2.80;;;2.50;;
11010;SDS011;5558;42.702;23.178;2022-10-03T02:06:22;4.67;;;3.27;;
11010;SDS011;5558;42.702;23.178;2022-10-03T02:09:00;3.33;;;3.03;;
11010;SDS011;5558;42.702;23.178;2022-10-03T02:11:34;2.33;;;1.97;;
11010;SDS011;5558;42.702;23.178;2022-10-03T02:14:06;3.50;;;2.17;;
11010;SDS011;5558;42.702;23.178;2022-10-03T02:16:45;2.20;;;2.00;;
11010;SDS011;5558;42.702;23.178;2022-10-03T02:19:23;3.03;;;2.73;;
11010;SDS011;5558;42.702;23.178;2022-10-03T02:21:54;3.23;;;2.90;;
11010;SDS011;5558;42.702;23.178;2022-10-03T02:24:25;2.93;;;2.20;;
11010;SDS011;5558;42.702;23.178;2022-10-03T02:30:17;2.83;;;2.20;;
11010;SDS011;5558;42.702;23.178;2022-10-03T02:39:02;2.00;;;1.90;;
11010;SDS011;5558;42.702;23.178;2022-10-03T02:42:04;1.93;;;1.80;;
11010;SDS011;5558;42.702;23.178;2022-10-03T02:44:54;2.97;;;2.67;;
11010;SDS011;5558;42.702;23.178;2022-10-03T02:47:41;2.10;;;1.90;;
11010;SDS011;5558;42.702;23.178;2022-10-03T02:54:08;2.37;;;2.17;;
11010;SDS011;5558;42.702;23.178;2022-10-03T02:57:11;2.33;;;1.83;;
11010;SDS011;5558;42.702;23.178;2022-10-03T03:00:02;2.00;;;1.90;;
11010;SDS011;5558;42.702;23.178;2022-10-03T03:05:54;2.83;;;1.90;;
11010;SDS011;5558;42.702;23.178;2022-10-03T03:08:45;2.63;;;2.30;;
11010;SDS011;5558;42.702;23.178;2022-10-03T03:17:50;2.30;;;2.10;;
11010;SDS011;5558;42.702;23.178;2022-10-03T03:20:37;3.17;;;2.73;;
11010;SDS011;5558;42.702;23.178;2022-10-03T03:23:15;2.37;;;2.17;;
11010;SDS011;5558;42.702;23.178;2022-10-03T03:26:05;2.63;;;1.90;;
11010;SDS011;5558;42.702;23.178;2022-10-03T03:28:44;3.10;;;2.20;;
11010;SDS011;5558;42.702;23.178;2022-10-03T03:31:24;2.50;;;2.17;;
11010;SDS011;5558;42.702;23.178;2022-10-03T03:34:01;2.67;;;2.10;;
11010;SDS011;5558;42.702;23.178;2022-10-03T03:36:35;2.10;;;2.00;;
11010;SDS011;5558;42.702;23.178;2022-10-03T03:39:18;3.57;;;2.00;;
11010;SDS011;5558;42.702;23.178;2022-10-03T03:42:11;2.73;;;2.00;;
11010;SDS011;5558;42.702;23.178;2022-10-03T03:45:12;2.53;;;2.10;;
11010;SDS011;5558;42.702;23.178;2022-10-03T03:47:59;3.57;;;2.20;;
11010;SDS011;5558;42.702;23.178;2022-10-03T03:50:45;3.83;;;2.47;;
11010;SDS011;5558;42.702;23.178;2022-10-03T03:53:30;2.70;;;2.00;;
11010;SDS011;5558;42.702;23.178;2022-10-03T03:59:37;2.93;;;2.23;;
11010;SDS011;5558;42.702;23.178;2022-10-03T04:02:16;2.90;;;2.03;;
11010;SDS011;5558;42.702;23.178;2022-10-03T04:04:57;2.40;;;2.20;;
11010;SDS011;5558;42.702;23.178;2022-10-03T04:07:36;2.30;;;2.10;;
11010;SDS011;5558;42.702;23.178;2022-10-03T04:10:27;2.47;;;2.20;;
11010;SDS011;5558;42.702;23.178;2022-10-03T04:13:09;2.23;;;1.90;;
11010;SDS011;5558;42.702;23.178;2022-10-03T04:15:55;2.20;;;2.00;;
11010;SDS011;5558;42.702;23.178;2022-10-03T04:18:39;2.50;;;2.20;;
11010;SDS011;5558;42.702;23.178;2022-10-03T04:21:33;2.80;;;2.10;;
11010;SDS011;5558;42.702;23.178;2022-10-03T04:24:25;2.10;;;1.90;;
11010;SDS011;5558;42.702;23.178;2022-10-03T04:27:24;1.90;;;1.77;;
11010;SDS011;5558;42.702;23.178;2022-10-03T04:30:04;2.23;;;2.03;;
11010;SDS011;5558;42.702;23.178;2022-10-03T04:32:45;2.40;;;1.97;;
11010;SDS011;5558;42.702;23.178;2022-10-03T04:35:31;2.53;;;1.90;;
11010;SDS011;5558;42.702;23.178;2022-10-03T04:38:13;3.93;;;2.17;;
11010;SDS011;5558;42.702;23.178;2022-10-03T04:40:47;2.40;;;2.03;;
11010;SDS011;5558;42.702;23.178;2022-10-03T04:43:23;3.20;;;1.90;;
11010;SDS011;5558;42.702;23.178;2022-10-03T04:46:04;2.87;;;1.97;;
11010;SDS011;5558;42.702;23.178;2022-10-03T04:48:43;1.70;;;1.60;;
11010;SDS011;5558;42.702;23.178;2022-10-03T04:51:17;2.70;;;1.90;;
11010;SDS011;5558;42.702;23.178;2022-10-03T04:53:54;2.63;;;1.80;;
11010;SDS011;5558;42.702;23.178;2022-10-03T04:56:36;1.87;;;1.77;;
11010;SDS011;5558;42.702;23.178;2022-10-03T05:02:19;3.13;;;1.90;;
11010;SDS011;5558;42.702;23.178;2022-10-03T05:04:57;2.47;;;2.03;;
11010;SDS011;5558;42.702;23.178;2022-10-03T05:07:50;2.30;;;1.70;;
11010;SDS011;5558;42.702;23.178;2022-10-03T05:10:29;2.03;;;1.83;;
11010;SDS011;5558;42.702;23.178;2022-10-03T05:13:11;2.50;;;1.90;;
11010;SDS011;5558;42.702;23.178;2022-10-03T05:15:44;2.73;;;1.90;;
11010;SDS011;5558;42.702;23.178;2022-10-03T05:18:20;2.67;;;1.80;;
11010;SDS011;5558;42.702;23.178;2022-10-03T05:20:53;3.37;;;2.00;;
11010;SDS011;5558;42.702;23.178;2022-10-03T05:23:28;2.93;;;2.20;;
11010;SDS011;5558;42.702;23.178;2022-10-03T05:26:09;2.43;;;2.20;;
11010;SDS011;5558;42.702;23.178;2022-10-03T05:28:42;2.83;;;1.80;;
11010;SDS011;5558;42.702;23.178;2022-10-03T05:34:15;3.03;;;2.20;;
11010;SDS011;5558;42.702;23.178;2022-10-03T05:36:58;2.43;;;1.80;;
11010;SDS011;5558;42.702;23.178;2022-10-03T05:39:43;3.70;;;2.40;;
11010;SDS011;5558;42.702;23.178;2022-10-03T05:42:25;4.63;;;2.43;;
11010;SDS011;5558;42.702;23.178;2022-10-03T05:45:02;6.20;;;4.83;;
11010;SDS011;5558;42.702;23.178;2022-10-03T05:47:39;7.00;;;4.70;;
11010;SDS011;5558;42.702;23.178;2022-10-03T05:50:20;5.10;;;4.40;;
11010;SDS011;5558;42.702;23.178;2022-10-03T05:53:02;5.57;;;3.30;;
11010;SDS011;5558;42.702;23.178;2022-10-03T05:55:52;5.23;;;3.00;;
11010;SDS011;5558;42.702;23.178;2022-10-03T06:01:54;4.20;;;2.40;;
11010;SDS011;5558;42.702;23.178;2022-10-03T06:07:41;3.03;;;2.33;;
11010;SDS011;5558;42.702;23.178;2022-10-03T06:13:17;5.70;;;2.40;;
11010;SDS011;5558;42.702;23.178;2022-10-03T06:16:00;3.57;;;2.10;;
11010;SDS011;5558;42.702;23.178;2022-10-03T06:18:56;3.20;;;2.10;;
11010;SDS011;5558;42.702;23.178;2022-10-03T06:21:55;4.73;;;2.40;;
11010;SDS011;5558;42.702;23.178;2022-10-03T06:24:54;5.10;;;1.90;;
11010;SDS011;5558;42.702;23.178;2022-10-03T06:27:57;2.57;;;1.90;;
11010;SDS011;5558;42.702;23.178;2022-10-03T06:30:48;2.13;;;1.60;;
11010;SDS011;5558;42.702;23.178;2022-10-03T06:33:39;3.37;;;1.90;;
11010;SDS011;5558;42.702;23.178;2022-10-03T06:36:26;4.17;;;1.70;;
11010;SDS011;5558;42.702;23.178;2022-10-03T06:42:43;3.43;;;2.00;;
11010;SDS011;5558;42.702;23.178;2022-10-03T07:07:40;4.20;;;2.50;;
11010;SDS011;5558;42.702;23.178;2022-10-03T07:10:36;3.97;;;2.77;;
11010;SDS011;5558;42.702;23.178;2022-10-03T07:13:21;4.17;;;3.00;;
11010;SDS011;5558;42.702;23.178;2022-10-03T07:16:18;4.30;;;2.90;;
11010;SDS011;5558;42.702;23.178;2022-10-03T07:19:20;5.03;;;2.60;;
11010;SDS011;5558;42.702;23.178;2022-10-03T07:25:12;4.17;;;2.70;;
11010;SDS011;5558;42.702;23.178;2022-10-03T07:31:07;5.00;;;2.43;;
11010;SDS011;5558;42.702;23.178;2022-10-03T07:34:05;6.60;;;3.30;;
11010;SDS011;5558;42.702;23.178;2022-10-03T07:37:08;5.93;;;3.10;;
11010;SDS011;5558;42.702;23.178;2022-10-03T07:40:14;4.40;;;2.90;;
11010;SDS011;5558;42.702;23.178;2022-10-03T07:43:00;4.97;;;2.87;;
11010;SDS011;5558;42.702;23.178;2022-10-03T07:49:09;4.77;;;2.10;;
11010;SDS011;5558;42.702;23.178;2022-10-03T07:51:57;4.33;;;2.00;;
11010;SDS011;5558;42.702;23.178;2022-10-03T07:54:58;5.53;;;1.90;;
11010;SDS011;5558;42.702;23.178;2022-10-03T07:57:55;3.67;;;1.87;;
11010;SDS011;5558;42.702;23.178;2022-10-03T08:00:43;3.70;;;2.33;;
11010;SDS011;5558;42.702;23.178;2022-10-03T08:06:22;2.70;;;2.00;;
11010;SDS011;5558;42.702;23.178;2022-10-03T08:09:12;1.93;;;1.77;;
11010;SDS011;5558;42.702;23.178;2022-10-03T08:12:06;3.17;;;1.90;;
11010;SDS011;5558;42.702;23.178;2022-10-03T08:14:54;3.97;;;1.90;;
11010;SDS011;5558;42.702;23.178;2022-10-03T08:20:50;2.90;;;1.50;;
11010;SDS011;5558;42.702;23.178;2022-10-03T08:23:32;2.80;;;1.50;;
11010;SDS011;5558;42.702;23.178;2022-10-03T08:26:49;2.30;;;1.60;;
11010;SDS011;5558;42.702;23.178;2022-10-03T08:32:47;3.10;;;2.00;;
11010;SDS011;5558;42.702;23.178;2022-10-03T08:35:36;1.50;;;1.40;;
11010;SDS011;5558;42.702;23.178;2022-10-03T08:44:43;2.03;;;1.70;;
11010;SDS011;5558;42.702;23.178;2022-10-03T08:48:05;2.50;;;1.67;;
11010;SDS011;5558;42.702;23.178;2022-10-03T08:50:58;1.60;;;1.50;;
11010;SDS011;5558;42.702;23.178;2022-10-03T08:53:54;1.40;;;1.30;;
11010;SDS011;5558;42.702;23.178;2022-10-03T08:56:34;1.40;;;1.30;;
11010;SDS011;5558;42.702;23.178;2022-10-03T08:59:28;2.07;;;1.40;;
11010;SDS011;5558;42.702;23.178;2022-10-03T09:05:41;2.57;;;1.70;;
11010;SDS011;5558;42.702;23.178;2022-10-03T09:08:44;1.53;;;1.43;;
11010;SDS011;5558;42.702;23.178;2022-10-03T09:11:35;1.73;;;1.40;;
11010;SDS011;5558;42.702;23.178;2022-10-03T09:20:48;1.40;;;1.30;;
11010;SDS011;5558;42.702;23.178;2022-10-03T09:23:50;1.43;;;1.30;;
11010;SDS011;5558;42.702;23.178;2022-10-03T09:29:50;1.40;;;1.30;;
11010;SDS011;5558;42.702;23.178;2022-10-03T09:36:28;1.70;;;1.60;;
11010;SDS011;5558;42.702;23.178;2022-10-03T09:39:15;1.50;;;1.40;;
11010;SDS011;5558;42.702;23.178;2022-10-03T09:48:24;1.40;;;1.30;;
11010;SDS011;5558;42.702;23.178;2022-10-03T09:51:07;1.50;;;1.40;;
11010;SDS011;5558;42.702;23.178;2022-10-03T10:00:07;1.03;;;1.03;;
11010;SDS011;5558;42.702;23.178;2022-10-03T10:05:53;1.10;;;1.10;;
11010;SDS011;5558;42.702;23.178;2022-10-03T10:15:04;1.20;;;1.10;;
11010;SDS011;5558;42.702;23.178;2022-10-03T10:18:19;1.10;;;1.00;;
11010;SDS011;5558;42.702;23.178;2022-10-03T10:27:31;1.03;;;0.80;;
11010;SDS011;5558;42.702;23.178;2022-10-03T10:30:32;0.93;;;0.93;;
11010;SDS011;5558;42.702;23.178;2022-10-03T10:36:43;0.80;;;0.80;;
11010;SDS011;5558;42.702;23.178;2022-10-03T10:45:59;0.87;;;0.80;;
11010;SDS011;5558;42.702;23.178;2022-10-03T10:49:07;0.80;;;0.80;;
11010;SDS011;5558;42.702;23.178;2022-10-03T11:01:09;1.17;;;1.07;;
11010;SDS011;5558;42.702;23.178;2022-10-03T11:07:09;1.50;;;1.40;;
11010;SDS011;5558;42.702;23.178;2022-10-03T11:09:55;2.00;;;1.27;;
11010;SDS011;5558;42.702;23.178;2022-10-03T11:22:26;1.70;;;1.60;;
11010;SDS011;5558;42.702;23.178;2022-10-03T11:25:24;1.83;;;1.73;;
11010;SDS011;5558;42.702;23.178;2022-10-03T11:34:51;2.83;;;2.00;;
11010;SDS011;5558;42.702;23.178;2022-10-03T11:37:40;2.40;;;2.20;;
11010;SDS011;5558;42.702;23.178;2022-10-03T11:40:17;2.50;;;2.30;;
11010;SDS011;5558;42.702;23.178;2022-10-03T11:42:54;2.13;;;2.03;;
11010;SDS011;5558;42.702;23.178;2022-10-03T11:45:32;2.20;;;2.10;;
11010;SDS011;5558;42.702;23.178;2022-10-03T11:48:14;3.07;;;2.60;;
11010;SDS011;5558;42.702;23.178;2022-10-03T11:51:00;2.60;;;2.40;;
11010;SDS011;5558;42.702;23.178;2022-10-03T11:53:35;2.83;;;2.63;;
11010;SDS011;5558;42.702;23.178;2022-10-03T11:56:16;3.00;;;2.80;;
11010;SDS011;5558;42.702;23.178;2022-10-03T11:58:54;3.20;;;3.00;;
11010;SDS011;5558;42.702;23.178;2022-10-03T12:01:46;3.17;;;2.90;;
11010;SDS011;5558;42.702;23.178;2022-10-03T12:04:27;2.97;;;2.77;;
11010;SDS011;5558;42.702;23.178;2022-10-03T12:07:08;2.80;;;2.60;;
11010;SDS011;5558;42.702;23.178;2022-10-03T12:10:02;2.93;;;2.73;;
11010;SDS011;5558;42.702;23.178;2022-10-03T12:12:41;2.60;;;2.50;;
11010;SDS011;5558;42.702;23.178;2022-10-03T12:15:16;2.40;;;2.30;;
11010;SDS011;5558;42.702;23.178;2022-10-03T12:17:53;2.67;;;2.40;;
11010;SDS011;5558;42.702;23.178;2022-10-03T12:20:29;2.90;;;2.40;;
11010;SDS011;5558;42.702;23.178;2022-10-03T12:23:13;2.33;;;2.23;;
11010;SDS011;5558;42.702;23.178;2022-10-03T12:25:52;4.53;;;2.30;;
11010;SDS011;5558;42.702;23.178;2022-10-03T12:28:22;2.13;;;1.90;;
11010;SDS011;5558;42.702;23.178;2022-10-03T12:30:54;2.37;;;2.27;;
11010;SDS011;5558;42.702;23.178;2022-10-03T12:33:32;2.30;;;2.20;;
11010;SDS011;5558;42.702;23.178;2022-10-03T12:36:11;2.50;;;2.40;;
11010;SDS011;5558;42.702;23.178;2022-10-03T12:39:00;2.73;;;2.53;;
11010;SDS011;5558;42.702;23.178;2022-10-03T12:41:51;3.20;;;3.00;;
11010;SDS011;5558;42.702;23.178;2022-10-03T12:44:31;3.13;;;2.90;;
11010;SDS011;5558;42.702;23.178;2022-10-03T12:47:13;3.00;;;2.80;;
11010;SDS011;5558;42.702;23.178;2022-10-03T12:50:03;3.10;;;2.90;;
11010;SDS011;5558;42.702;23.178;2022-10-03T12:52:41;2.97;;;2.77;;
11010;SDS011;5558;42.702;23.178;2022-10-03T12:55:21;2.87;;;2.67;;
11010;SDS011;5558;42.702;23.178;2022-10-03T12:57:53;2.67;;;2.50;;
11010;SDS011;5558;42.702;23.178;2022-10-03T13:00:28;2.90;;;2.70;;
11010;SDS011;5558;42.702;23.178;2022-10-03T13:03:12;2.10;;;2.00;;
11010;SDS011;5558;42.702;23.178;2022-10-03T13:05:47;2.60;;;2.40;;
11010;SDS011;5558;42.702;23.178;2022-10-03T13:08:28;2.33;;;2.13;;
11010;SDS011;5558;42.702;23.178;2022-10-03T13:11:25;2.50;;;2.40;;
11010;SDS011;5558;42.702;23.178;2022-10-03T13:14:05;2.40;;;2.20;;
11010;SDS011;5558;42.702;23.178;2022-10-03T13:16:54;3.73;;;2.30;;
11010;SDS011;5558;42.702;23.178;2022-10-03T13:19:27;2.87;;;2.30;;
11010;SDS011;5558;42.702;23.178;2022-10-03T13:22:08;2.37;;;2.00;;
11010;SDS011;5558;42.702;23.178;2022-10-03T13:24:49;2.40;;;2.20;;
11010;SDS011;5558;42.702;23.178;2022-10-03T13:27:30;1.90;;;1.80;;
11010;SDS011;5558;42.702;23.178;2022-10-03T13:30:05;1.77;;;1.67;;
11010;SDS011;5558;42.702;23.178;2022-10-03T13:32:41;1.70;;;1.50;;
11010;SDS011;5558;42.702;23.178;2022-10-03T13:35:19;2.00;;;1.90;;
11010;SDS011;5558;42.702;23.178;2022-10-03T13:41:27;4.33;;;2.00;;
11010;SDS011;5558;42.702;23.178;2022-10-03T13:44:01;1.90;;;1.80;;
11010;SDS011;5558;42.702;23.178;2022-10-03T13:46:37;1.90;;;1.80;;
11010;SDS011;5558;42.702;23.178;2022-10-03T13:49:10;1.87;;;1.70;;
11010;SDS011;5558;42.702;23.178;2022-10-03T13:51:45;1.50;;;1.50;;
11010;SDS011;5558;42.702;23.178;2022-10-03T13:54:19;1.40;;;1.40;;
11010;SDS011;5558;42.702;23.178;2022-10-03T13:57:00;2.03;;;1.40;;
11010;SDS011;5558;42.702;23.178;2022-10-03T13:59:41;1.57;;;1.40;;
11010;SDS011;5558;42.702;23.178;2022-10-03T14:05:24;1.90;;;1.60;;
11010;SDS011;5558;42.702;23.178;2022-10-03T14:08:05;1.60;;;1.50;;
11010;SDS011;5558;42.702;23.178;2022-10-03T14:13:35;1.30;;;1.30;;
11010;SDS011;5558;42.702;23.178;2022-10-03T14:16:14;1.53;;;1.40;;
11010;SDS011;5558;42.702;23.178;2022-10-03T14:18:48;1.80;;;1.57;;
11010;SDS011;5558;42.702;23.178;2022-10-03T14:21:24;1.40;;;1.30;;
11010;SDS011;5558;42.702;23.178;2022-10-03T14:24:17;1.30;;;1.20;;
11010;SDS011;5558;42.702;23.178;2022-10-03T14:26:54;1.67;;;1.40;;
11010;SDS011;5558;42.702;23.178;2022-10-03T14:29:26;1.27;;;1.17;;
11010;SDS011;5558;42.702;23.178;2022-10-03T14:32:00;1.60;;;1.50;;
11010;SDS011;5558;42.702;23.178;2022-10-03T14:34:36;1.33;;;1.33;;
11010;SDS011;5558;42.702;23.178;2022-10-03T14:37:13;1.57;;;1.40;;
11010;SDS011;5558;42.702;23.178;2022-10-03T14:39:49;2.10;;;1.50;;
11010;SDS011;5558;42.702;23.178;2022-10-03T14:42:30;1.57;;;1.30;;
11010;SDS011;5558;42.702;23.178;2022-10-03T14:45:05;2.87;;;1.80;;
11010;SDS011;5558;42.702;23.178;2022-10-03T14:47:38;1.60;;;1.50;;
11010;SDS011;5558;42.702;23.178;2022-10-03T14:50:12;3.10;;;1.90;;
11010;SDS011;5558;42.702;23.178;2022-10-03T14:52:42;2.20;;;1.97;;
11010;SDS011;5558;42.702;23.178;2022-10-03T14:55:16;2.10;;;2.00;;
11010;SDS011;5558;42.702;23.178;2022-10-03T14:57:45;2.60;;;2.20;;
11010;SDS011;5558;42.702;23.178;2022-10-03T15:00:23;2.53;;;2.33;;
11010;SDS011;5558;42.702;23.178;2022-10-03T15:02:54;2.43;;;2.23;;
11010;SDS011;5558;42.702;23.178;2022-10-03T15:05:28;2.43;;;2.30;;
11010;SDS011;5558;42.702;23.178;2022-10-03T15:07:59;2.40;;;2.30;;
11010;SDS011;5558;42.702;23.178;2022-10-03T15:10:28;2.50;;;2.30;;
11010;SDS011;5558;42.702;23.178;2022-10-03T15:12:57;2.20;;;2.00;;
11010;SDS011;5558;42.702;23.178;2022-10-03T15:15:29;1.90;;;1.80;;
11010;SDS011;5558;42.702;23.178;2022-10-03T15:18:01;2.20;;;1.83;;
11010;SDS011;5558;42.702;23.178;2022-10-03T15:20:31;1.47;;;1.40;;
11010;SDS011;5558;42.702;23.178;2022-10-03T15:23:01;2.00;;;1.90;;
11010;SDS011;5558;42.702;23.178;2022-10-03T15:25:31;1.80;;;1.70;;
11010;SDS011;5558;42.702;23.178;2022-10-03T15:28:02;1.57;;;1.50;;
11010;SDS011;5558;42.702;23.178;2022-10-03T15:30:33;2.27;;;1.77;;
11010;SDS011;5558;42.702;23.178;2022-10-03T15:33:04;2.60;;;2.00;;
11010;SDS011;5558;42.702;23.178;2022-10-03T15:35:37;2.13;;;2.00;;
11010;SDS011;5558;42.702;23.178;2022-10-03T15:38:09;1.90;;;1.80;;
11010;SDS011;5558;42.702;23.178;2022-10-03T15:40:42;2.17;;;2.00;;
11010;SDS011;5558;42.702;23.178;2022-10-03T15:43:24;2.10;;;2.00;;
11010;SDS011;5558;42.702;23.178;2022-10-03T15:45:55;2.10;;;1.90;;
11010;SDS011;5558;42.702;23.178;2022-10-03T15:48:25;1.97;;;1.87;;
11010;SDS011;5558;42.702;23.178;2022-10-03T15:50:55;3.33;;;2.50;;
11010;SDS011;5558;42.702;23.178;2022-10-03T15:53:24;2.30;;;2.20;;
11010;SDS011;5558;42.702;23.178;2022-10-03T15:55:54;2.30;;;2.20;;
11010;SDS011;5558;42.702;23.178;2022-10-03T15:58:26;2.07;;;1.90;;
11010;SDS011;5558;42.702;23.178;2022-10-03T16:00:59;2.00;;;1.90;;
11010;SDS011;5558;42.702;23.178;2022-10-03T16:03:35;3.20;;;2.50;;
11010;SDS011;5558;42.702;23.178;2022-10-03T16:06:08;2.33;;;2.10;;
11010;SDS011;5558;42.702;23.178;2022-10-03T16:08:41;2.33;;;2.10;;
11010;SDS011;5558;42.702;23.178;2022-10-03T16:11:20;2.10;;;2.00;;
11010;SDS011;5558;42.702;23.178;2022-10-03T16:13:52;3.13;;;2.27;;
11010;SDS011;5558;42.702;23.178;2022-10-03T16:16:28;2.50;;;2.30;;
11010;SDS011;5558;42.702;23.178;2022-10-03T16:19:13;2.43;;;2.30;;
11010;SDS011;5558;42.702;23.178;2022-10-03T16:21:47;2.50;;;2.30;;
11010;SDS011;5558;42.702;23.178;2022-10-03T16:24:24;4.13;;;2.67;;
11010;SDS011;5558;42.702;23.178;2022-10-03T16:26:58;9.97;;;8.10;;
11010;SDS011;5558;42.702;23.178;2022-10-03T16:29:33;3.00;;;2.80;;
11010;SDS011;5558;42.702;23.178;2022-10-03T16:32:03;3.93;;;2.57;;
11010;SDS011;5558;42.702;23.178;2022-10-03T16:34:34;2.93;;;2.73;;
11010;SDS011;5558;42.702;23.178;2022-10-03T16:37:14;2.90;;;2.60;;
11010;SDS011;5558;42.702;23.178;2022-10-03T16:39:51;2.77;;;2.43;;
11010;SDS011;5558;42.702;23.178;2022-10-03T16:42:21;2.93;;;2.60;;
11010;SDS011;5558;42.702;23.178;2022-10-03T16:44:50;3.33;;;2.43;;
11010;SDS011;5558;42.702;23.178;2022-10-03T16:47:26;2.80;;;2.60;;
11010;SDS011;5558;42.702;23.178;2022-10-03T16:49:59;2.27;;;2.07;;
11010;SDS011;5558;42.702;23.178;2022-10-03T16:52:44;2.97;;;2.00;;
11010;SDS011;5558;42.702;23.178;2022-10-03T16:55:15;2.77;;;2.00;;
11010;SDS011;5558;42.702;23.178;2022-10-03T16:57:44;1.80;;;1.70;;
11010;SDS011;5558;42.702;23.178;2022-10-03T17:00:16;1.80;;;1.70;;
11010;SDS011;5558;42.702;23.178;2022-10-03T17:02:46;1.93;;;1.73;;
11010;SDS011;5558;42.702;23.178;2022-10-03T17:05:15;2.00;;;1.90;;
11010;SDS011;5558;42.702;23.178;2022-10-03T17:07:44;2.03;;;1.70;;
11010;SDS011;5558;42.702;23.178;2022-10-03T17:10:21;1.60;;;1.50;;
11010;SDS011;5558;42.702;23.178;2022-10-03T17:12:54;3.23;;;1.67;;
11010;SDS011;5558;42.702;23.178;2022-10-03T17:15:26;1.70;;;1.60;;
11010;SDS011;5558;42.702;23.178;2022-10-03T17:17:58;2.70;;;2.50;;
11010;SDS011;5558;42.702;23.178;2022-10-03T17:20:37;1.97;;;1.80;;
11010;SDS011;5558;42.702;23.178;2022-10-03T17:23:09;2.30;;;2.10;;
11010;SDS011;5558;42.702;23.178;2022-10-03T17:25:46;2.50;;;2.10;;
11010;SDS011;5558;42.702;23.178;2022-10-03T17:28:26;2.40;;;2.20;;
11010;SDS011;5558;42.702;23.178;2022-10-03T17:31:02;2.53;;;2.30;;
11010;SDS011;5558;42.702;23.178;2022-10-03T17:33:33;2.77;;;2.20;;
11010;SDS011;5558;42.702;23.178;2022-10-03T17:36:18;2.53;;;2.20;;
11010;SDS011;5558;42.702;23.178;2022-10-03T17:39:00;2.33;;;2.00;;
11010;SDS011;5558;42.702;23.178;2022-10-03T17:41:31;2.20;;;2.00;;
11010;SDS011;5558;42.702;23.178;2022-10-03T17:44:12;2.60;;;2.27;;
11010;SDS011;5558;42.702;23.178;2022-10-03T17:46:45;2.60;;;2.40;;
11010;SDS011;5558;42.702;23.178;2022-10-03T17:49:24;2.03;;;1.93;;
11010;SDS011;5558;42.702;23.178;2022-10-03T17:52:09;1.93;;;1.83;;
11010;SDS011;5558;42.702;23.178;2022-10-03T17:54:43;1.60;;;1.50;;
11010;SDS011;5558;42.702;23.178;2022-10-03T17:57:12;2.20;;;2.00;;
11010;SDS011;5558;42.702;23.178;2022-10-03T17:59:45;2.27;;;2.07;;
11010;SDS011;5558;42.702;23.178;2022-10-03T18:02:19;2.37;;;2.27;;
11010;SDS011;5558;42.702;23.178;2022-10-03T18:04:52;3.57;;;2.10;;
11010;SDS011;5558;42.702;23.178;2022-10-03T18:07:26;2.23;;;1.90;;
11010;SDS011;5558;42.702;23.178;2022-10-03T18:09:55;3.77;;;2.00;;
11010;SDS011;5558;42.702;23.178;2022-10-03T18:12:26;3.40;;;1.90;;
11010;SDS011;5558;42.702;23.178;2022-10-03T18:15:12;2.27;;;2.07;;
11010;SDS011;5558;42.702;23.178;2022-10-03T18:17:58;2.93;;;1.87;;
11010;SDS011;5558;42.702;23.178;2022-10-03T18:20:42;2.67;;;2.07;;
11010;SDS011;5558;42.702;23.178;2022-10-03T18:23:19;2.37;;;2.17;;
11010;SDS011;5558;42.702;23.178;2022-10-03T18:25:55;2.17;;;1.70;;
11010;SDS011;5558;42.702;23.178;2022-10-03T18:28:31;2.03;;;1.70;;
11010;SDS011;5558;42.702;23.178;2022-10-03T18:31:01;2.20;;;2.00;;
11010;SDS011;5558;42.702;23.178;2022-10-03T18:33:32;5.07;;;4.50;;
11010;SDS011;5558;42.702;23.178;2022-10-03T18:36:14;2.53;;;1.67;;
11010;SDS011;5558;42.702;23.178;2022-10-03T18:38:46;2.27;;;2.07;;
11010;SDS011;5558;42.702;23.178;2022-10-03T18:41:14;1.97;;;1.60;;
11010;SDS011;5558;42.702;23.178;2022-10-03T18:43:43;1.77;;;1.57;;
11010;SDS011;5558;42.702;23.178;2022-10-03T18:46:12;2.10;;;1.90;;
11010;SDS011;5558;42.702;23.178;2022-10-03T18:48:54;2.53;;;2.27;;
11010;SDS011;5558;42.702;23.178;2022-10-03T18:51:28;1.60;;;1.50;;
11010;SDS011;5558;42.702;23.178;2022-10-03T18:54:00;2.23;;;1.47;;
11010;SDS011;5558;42.702;23.178;2022-10-03T18:56:32;1.87;;;1.50;;
11010;SDS011;5558;42.702;23.178;2022-10-03T18:59:09;1.63;;;1.50;;
11010;SDS011;5558;42.702;23.178;2022-10-03T19:01:47;1.47;;;1.30;;
11010;SDS011;5558;42.702;23.178;2022-10-03T19:04:19;2.00;;;1.70;;
11010;SDS011;5558;42.702;23.178;2022-10-03T19:06:59;3.60;;;3.30;;
11010;SDS011;5558;42.702;23.178;2022-10-03T19:09:31;1.90;;;1.50;;
11010;SDS011;5558;42.702;23.178;2022-10-03T19:12:04;1.60;;;1.47;;
11010;SDS011;5558;42.702;23.178;2022-10-03T19:14:41;1.67;;;1.57;;
11010;SDS011;5558;42.702;23.178;2022-10-03T19:17:22;1.70;;;1.60;;
11010;SDS011;5558;42.702;23.178;2022-10-03T19:20:00;2.90;;;2.37;;
11010;SDS011;5558;42.702;23.178;2022-10-03T19:22:52;1.53;;;1.40;;
11010;SDS011;5558;42.702;23.178;2022-10-03T19:25:25;1.87;;;1.50;;
11010;SDS011;5558;42.702;23.178;2022-10-03T19:27:55;1.80;;;1.50;;
11010;SDS011;5558;42.702;23.178;2022-10-03T19:30:26;1.70;;;1.40;;
11010;SDS011;5558;42.702;23.178;2022-10-03T19:32:56;2.10;;;1.60;;